Time;durP1;ratioP1;P1;durP2;ratioP2;P2;SDS_P1;SDS_P2;PMS_P1;PMS_P2;Temp;Humidity;BMP_temperature;BMP_pressure;BME280_temperature;BME280_humidity;BME280_pressure;Samples;Min_cycle;Max_cycle;Signal;HPM_P1;HPM_P2
2022/03/24 00:00:30;;;;;;;3.22;2.15;;;5.00;99.90;;;;;;4994690;28;20505;-73
2022/03/24 00:02:56;;;;;;;0.40;0.40;;;5.00;99.90;;;;;;4993731;28;20505;-73
2022/03/24 00:05:21;;;;;;;0.47;0.47;;;5.00;99.90;;;;;;5002020;28;20536;-73
2022/03/24 00:07:47;;;;;;;2.40;2.28;;;5.00;99.90;;;;;;4994946;28;20150;-73
2022/03/24 00:10:13;;;;;;;3.40;3.10;;;5.00;99.90;;;;;;4994012;28;20034;-73
2022/03/24 00:12:39;;;;;;;0.30;0.30;;;5.00;99.90;;;;;;4993731;28;20041;-73
2022/03/24 00:15:06;;;;;;;0.88;0.88;;;5.00;99.90;;;;;;5010597;28;20041;-73
2022/03/24 00:17:32;;;;;;;1.67;1.58;;;4.90;99.90;;;;;;5009109;28;20386;-73
2022/03/24 00:19:58;;;;;;;0.30;0.30;;;4.90;99.90;;;;;;5005599;28;20045;-73
2022/03/24 00:22:24;;;;;;;1.17;1.15;;;4.80;99.90;;;;;;4994394;28;20038;-73
2022/03/24 00:24:51;;;;;;;1.08;1.00;;;4.80;99.90;;;;;;5010442;28;20412;-73
2022/03/24 00:27:16;;;;;;;1.95;1.85;;;4.80;99.90;;;;;;5010212;28;20500;-73
2022/03/24 00:29:43;;;;;;;0.40;0.40;;;4.80;99.90;;;;;;4993802;28;20038;-73
2022/03/24 00:32:09;;;;;;;0.75;0.75;;;4.70;99.90;;;;;;5010542;28;20565;-73
2022/03/24 00:34:35;;;;;;;1.30;1.27;;;4.70;99.90;;;;;;5009116;28;20049;-73
2022/03/24 00:37:03;;;;;;;0.63;0.63;;;4.70;99.90;;;;;;5010454;28;20045;-73
2022/03/24 00:39:33;;;;;;;0.60;0.60;;;4.60;99.90;;;;;;5010238;28;20111;-73
2022/03/24 00:42:00;;;;;;;0.57;0.57;;;4.60;99.90;;;;;;5010519;28;20135;-73
2022/03/24 00:44:26;;;;;;;0.95;0.95;;;4.50;99.90;;;;;;5009174;28;20647;-74
2022/03/24 00:46:53;;;;;;;1.92;1.80;;;4.50;99.90;;;;;;5010108;28;20033;-73
2022/03/24 00:49:21;;;;;;;9.82;3.30;;;4.40;99.90;;;;;;5010191;28;20120;-73
2022/03/24 00:51:48;;;;;;;5.13;4.00;;;4.40;99.90;;;;;;4990997;28;20104;-73
2022/03/24 00:54:14;;;;;;;2.40;2.30;;;4.40;99.90;;;;;;4993911;28;20052;-72
2022/03/24 00:56:40;;;;;;;1.05;1.05;;;4.40;99.90;;;;;;5010486;28;20449;-73
2022/03/24 00:59:06;;;;;;;4.38;2.20;;;4.30;99.90;;;;;;4994262;28;20096;-73
2022/03/24 01:01:31;;;;;;;2.70;2.60;;;4.20;99.90;;;;;;4994475;28;20121;-73
2022/03/24 01:03:57;;;;;;;1.13;1.13;;;4.20;99.90;;;;;;4993573;28;20099;-73
2022/03/24 01:06:26;;;;;;;9.20;6.75;;;4.10;99.90;;;;;;5010355;28;20041;-73
2022/03/24 01:08:52;;;;;;;1.65;1.55;;;4.10;99.90;;;;;;4993390;28;20449;-73
2022/03/24 01:11:18;;;;;;;1.92;1.83;;;4.10;99.90;;;;;;4993262;28;20489;-73
2022/03/24 01:13:44;;;;;;;2.22;2.10;;;4.10;99.90;;;;;;5009863;28;20045;-73
2022/03/24 01:16:10;;;;;;;0.85;0.85;;;4.10;99.90;;;;;;4994003;28;20048;-72
2022/03/24 01:18:37;;;;;;;0.47;0.47;;;4.10;99.90;;;;;;5008916;28;20536;-73
2022/03/24 01:21:04;;;;;;;0.40;0.40;;;4.10;99.90;;;;;;5010423;28;20141;-73
2022/03/24 01:23:31;;;;;;;1.85;1.75;;;4.10;99.90;;;;;;5008608;28;20083;-73
2022/03/24 01:26:02;;;;;;;1.63;1.52;;;4.10;99.90;;;;;;5026562;28;20139;-73
2022/03/24 01:28:28;;;;;;;0.40;0.40;;;4.10;99.90;;;;;;4993224;28;20180;-73
2022/03/24 01:30:54;;;;;;;2.45;2.35;;;4.10;99.90;;;;;;4993391;28;20486;-73
2022/03/24 01:33:22;;;;;;;1.05;1.05;;;4.10;99.90;;;;;;5008167;28;20046;-73
2022/03/24 01:35:48;;;;;;;2.40;2.25;;;4.10;99.90;;;;;;5010092;28;20556;-73
2022/03/24 01:38:16;;;;;;;0.40;0.40;;;4.10;99.90;;;;;;5009703;28;20563;-73
2022/03/24 01:40:45;;;;;;;0.75;0.75;;;4.00;99.90;;;;;;4992920;28;20033;-73
2022/03/24 01:43:11;;;;;;;0.40;0.40;;;4.00;99.90;;;;;;5013580;28;20124;-73
2022/03/24 01:45:37;;;;;;;0.88;0.88;;;4.00;99.90;;;;;;5013092;28;20120;-73
2022/03/24 01:48:05;;;;;;;4.85;4.45;;;4.00;99.90;;;;;;5013694;28;20468;-73
2022/03/24 01:50:30;;;;;;;1.23;1.20;;;4.00;99.90;;;;;;4996651;28;20456;-74
2022/03/24 01:52:56;;;;;;;1.92;1.83;;;4.00;99.90;;;;;;4996860;28;20045;-73
2022/03/24 01:55:23;;;;;;;3.63;2.05;;;4.00;99.90;;;;;;4986962;28;20409;-73
2022/03/24 01:57:49;;;;;;;0.40;0.40;;;4.10;99.90;;;;;;5007042;28;20115;-73
2022/03/24 02:00:15;;;;;;;1.67;1.58;;;4.00;99.90;;;;;;5008737;28;20048;-73
2022/03/24 02:02:44;;;;;;;4.35;3.95;;;4.00;99.90;;;;;;5011315;28;20132;-74
2022/03/24 02:05:10;;;;;;;0.40;0.40;;;4.00;99.90;;;;;;4996391;28;20044;-74
2022/03/24 02:07:36;;;;;;;1.48;1.38;;;4.00;99.90;;;;;;5011476;28;20061;-74
2022/03/24 02:10:06;;;;;;;4.50;4.10;;;4.00;99.90;;;;;;5013654;28;20064;-74
2022/03/24 02:12:33;;;;;;;0.30;0.30;;;3.90;99.90;;;;;;5013053;28;20102;-73
2022/03/24 02:14:59;;;;;;;0.30;0.30;;;3.90;99.90;;;;;;4995617;28;20038;-73
2022/03/24 02:17:30;;;;;;;3.25;3.05;;;3.90;99.90;;;;;;5012422;28;20064;-73
2022/03/24 02:19:57;;;;;;;0.57;0.57;;;3.90;99.90;;;;;;5013922;28;20073;-74
2022/03/24 02:22:24;;;;;;;0.50;0.50;;;3.80;99.90;;;;;;4995977;28;20117;-73
2022/03/24 02:24:50;;;;;;;3.30;1.23;;;3.90;99.90;;;;;;5012453;28;20045;-73
2022/03/24 02:27:16;;;;;;;0.38;0.38;;;3.90;99.90;;;;;;5007854;28;20054;-74
2022/03/24 02:29:41;;;;;;;0.50;0.50;;;3.90;99.90;;;;;;4995516;28;20124;-73
2022/03/24 02:32:08;;;;;;;0.35;0.35;;;3.90;99.90;;;;;;5009679;28;20050;-73
2022/03/24 02:34:38;;;;;;;0.30;0.30;;;3.90;99.90;;;;;;5013310;28;20042;-73
2022/03/24 02:37:15;;;;;;;2.67;2.53;;;3.90;99.90;;;;;;5012192;28;20051;-73
2022/03/24 02:39:42;;;;;;;0.60;0.60;;;3.80;99.90;;;;;;5002760;28;20048;-73
2022/03/24 02:42:14;;;;;;;3.78;2.22;;;3.70;99.90;;;;;;5012756;28;20124;-73
2022/03/24 02:44:44;;;;;;;0.40;0.40;;;3.70;99.90;;;;;;5008862;28;20486;-73
2022/03/24 02:47:11;;;;;;;0.50;0.50;;;3.70;99.90;;;;;;4995069;28;20571;-74
2022/03/24 02:49:38;;;;;;;0.38;0.38;;;3.80;99.90;;;;;;4992929;28;20049;-73
2022/03/24 02:52:04;;;;;;;1.42;1.40;;;3.80;99.90;;;;;;5024381;28;20041;-73
2022/03/24 02:54:31;;;;;;;1.15;1.15;;;3.80;99.90;;;;;;4995348;28;20045;-73
2022/03/24 02:56:57;;;;;;;0.40;0.40;;;3.80;99.90;;;;;;4990747;28;20037;-73
2022/03/24 02:59:23;;;;;;;0.55;0.55;;;3.80;99.90;;;;;;5025684;28;20390;-73
2022/03/24 03:01:56;;;;;;;9.13;1.08;;;3.80;99.90;;;;;;5011662;28;20044;-73
2022/03/24 03:04:22;;;;;;;3.13;2.92;;;3.70;99.90;;;;;;5012436;28;20077;-73
2022/03/24 03:06:48;;;;;;;1.02;1.02;;;3.70;99.90;;;;;;5011369;28;20065;-73
2022/03/24 03:09:16;;;;;;;0.40;0.40;;;3.80;99.90;;;;;;5012448;28;20041;-73
2022/03/24 03:11:44;;;;;;;1.65;1.58;;;3.80;99.90;;;;;;5006956;28;20484;-73
2022/03/24 03:14:11;;;;;;;1.58;1.55;;;3.70;99.90;;;;;;5009662;28;20049;-73
2022/03/24 03:16:38;;;;;;;0.40;0.40;;;3.70;99.90;;;;;;5005939;28;20037;-73
2022/03/24 03:19:04;;;;;;;0.43;0.43;;;3.60;99.90;;;;;;4982176;28;20038;-73
2022/03/24 03:21:31;;;;;;;0.40;0.40;;;3.50;99.90;;;;;;5011084;28;20041;-73
2022/03/24 03:23:56;;;;;;;0.40;0.40;;;3.40;99.90;;;;;;4994806;28;20485;-73
2022/03/24 03:26:23;;;;;;;0.60;0.55;;;3.40;99.90;;;;;;4995504;28;20391;-73
2022/03/24 03:28:52;;;;;;;2.67;2.38;;;3.30;99.90;;;;;;4995464;28;20037;-74
2022/03/24 03:31:19;;;;;;;1.02;1.02;;;3.30;99.90;;;;;;4994307;28;20057;-74
2022/03/24 03:33:44;;;;;;;0.82;0.82;;;3.30;99.90;;;;;;5011846;28;20118;-73
2022/03/24 03:36:11;;;;;;;0.35;0.35;;;3.40;99.90;;;;;;5011679;28;20128;-73
2022/03/24 03:38:36;;;;;;;0.30;0.30;;;3.40;99.90;;;;;;5010264;28;20037;-73
2022/03/24 03:41:02;;;;;;;0.80;0.80;;;3.30;99.90;;;;;;4996168;28;20102;-74
2022/03/24 03:43:29;;;;;;;1.48;1.48;;;3.30;99.90;;;;;;4994975;28;20041;-74
2022/03/24 03:45:55;;;;;;;0.40;0.40;;;3.20;99.90;;;;;;4994869;28;20044;-74
2022/03/24 03:48:21;;;;;;;0.60;0.60;;;3.20;99.90;;;;;;5008610;28;20108;-73
2022/03/24 03:50:48;;;;;;;0.73;0.73;;;3.20;99.90;;;;;;4993759;28;20072;-74
2022/03/24 03:53:14;;;;;;;0.40;0.40;;;3.20;99.90;;;;;;4994770;28;20049;-73
2022/03/24 03:55:40;;;;;;;0.40;0.40;;;3.20;99.90;;;;;;5008090;28;20047;-73
2022/03/24 03:58:06;;;;;;;0.40;0.40;;;3.10;99.90;;;;;;5009673;28;20124;-73
2022/03/24 04:00:53;;;;;;;0.30;0.30;;;3.10;99.90;;;;;;5011496;28;20491;-73
2022/03/24 04:03:21;;;;;;;0.40;0.40;;;3.10;99.90;;;;;;5010633;28;20080;-73
2022/03/24 04:05:47;;;;;;;0.30;0.30;;;3.00;99.90;;;;;;5010594;28;20124;-73
2022/03/24 04:08:13;;;;;;;0.40;0.40;;;3.00;99.90;;;;;;4994061;28;20583;-73
2022/03/24 04:10:39;;;;;;;0.57;0.57;;;2.90;99.90;;;;;;4994923;28;20029;-73
2022/03/24 04:13:05;;;;;;;1.15;1.15;;;2.90;99.90;;;;;;4994980;28;20041;-73
2022/03/24 04:15:32;;;;;;;1.48;1.38;;;2.90;99.90;;;;;;5010589;28;20041;-73
2022/03/24 04:17:58;;;;;;;0.40;0.40;;;2.90;99.90;;;;;;5010506;28;20399;-73
2022/03/24 04:20:23;;;;;;;1.10;1.10;;;2.80;99.90;;;;;;5007466;28;20050;-73
2022/03/24 04:22:51;;;;;;;0.55;0.55;;;2.80;99.90;;;;;;5009954;28;20132;-73
2022/03/24 04:25:17;;;;;;;0.40;0.40;;;2.80;99.90;;;;;;5010448;28;20412;-73
2022/03/24 04:27:43;;;;;;;0.40;0.40;;;2.80;99.90;;;;;;4994092;28;20049;-73
2022/03/24 04:30:11;;;;;;;0.55;0.55;;;2.80;99.90;;;;;;4994077;28;20440;-73
2022/03/24 04:32:36;;;;;;;1.35;1.25;;;2.70;99.90;;;;;;5010031;28;20056;-73
2022/03/24 04:35:02;;;;;;;0.60;0.60;;;2.70;99.90;;;;;;5010220;28;20041;-73
2022/03/24 04:37:27;;;;;;;7.78;4.43;;;2.80;99.90;;;;;;5010777;28;20120;-73
2022/03/24 04:39:53;;;;;;;3.20;3.00;;;2.70;99.90;;;;;;5009695;28;20073;-73
2022/03/24 04:42:19;;;;;;;0.70;0.70;;;2.70;99.90;;;;;;5008816;28;20486;-73
2022/03/24 04:44:45;;;;;;;1.67;1.63;;;2.80;99.90;;;;;;5010579;28;20147;-73
2022/03/24 04:47:11;;;;;;;0.77;0.70;;;2.80;99.90;;;;;;5009312;28;20540;-73
2022/03/24 04:49:36;;;;;;;10.15;2.50;;;2.90;99.90;;;;;;5008859;28;20166;-73
2022/03/24 04:52:03;;;;;;;2.15;2.05;;;2.90;99.90;;;;;;5010597;28;20509;-73
2022/03/24 04:54:29;;;;;;;0.50;0.50;;;2.90;99.90;;;;;;5008580;28;20049;-73
2022/03/24 04:56:57;;;;;;;0.40;0.40;;;2.90;99.90;;;;;;5010499;28;20029;-72
2022/03/24 04:59:23;;;;;;;0.40;0.40;;;2.90;99.90;;;;;;5026160;28;20123;-73
2022/03/24 05:01:48;;;;;;;0.77;0.77;;;2.90;99.90;;;;;;5010449;28;20037;-73
2022/03/24 05:04:15;;;;;;;4.47;2.85;;;2.90;99.90;;;;;;4993485;28;20034;-73
2022/03/24 05:06:41;;;;;;;0.60;0.60;;;2.80;99.90;;;;;;5007540;28;20045;-73
2022/03/24 05:09:07;;;;;;;0.50;0.50;;;2.80;99.90;;;;;;5001838;28;20048;-73
2022/03/24 05:11:33;;;;;;;0.65;0.65;;;2.80;99.90;;;;;;4995506;28;20091;-73
2022/03/24 05:13:58;;;;;;;0.77;0.77;;;2.70;99.90;;;;;;4993777;28;20041;-73
2022/03/24 05:16:25;;;;;;;0.45;0.45;;;2.70;99.90;;;;;;5008011;28;20529;-73
2022/03/24 05:18:50;;;;;;;0.65;0.65;;;2.60;99.90;;;;;;5006590;28;20044;-73
2022/03/24 05:21:16;;;;;;;9.95;7.70;;;2.60;99.90;;;;;;5013172;28;20489;-73
2022/03/24 05:23:42;;;;;;;0.43;0.43;;;2.50;99.90;;;;;;5013285;28;20501;-73
2022/03/24 05:26:08;;;;;;;0.40;0.40;;;2.50;99.90;;;;;;4995290;28;20050;-73
2022/03/24 05:28:33;;;;;;;1.02;1.02;;;2.50;99.90;;;;;;5030667;28;20033;-72
2022/03/24 05:30:59;;;;;;;1.63;1.55;;;2.50;99.90;;;;;;5013246;28;20045;-72
2022/03/24 05:33:24;;;;;;;0.50;0.50;;;2.50;99.90;;;;;;4997321;28;20508;-73
2022/03/24 05:35:50;;;;;;;0.40;0.40;;;2.50;99.90;;;;;;4997199;28;20049;-73
2022/03/24 05:38:17;;;;;;;0.50;0.50;;;2.50;99.90;;;;;;5013182;28;20046;-72
2022/03/24 05:40:43;;;;;;;0.40;0.40;;;2.40;99.90;;;;;;4996698;28;20045;-72
2022/03/24 05:43:08;;;;;;;0.50;0.50;;;2.50;99.90;;;;;;5013191;28;20084;-72
2022/03/24 05:45:34;;;;;;;0.40;0.40;;;2.50;99.90;;;;;;5008756;28;20088;-72
2022/03/24 05:48:00;;;;;;;0.40;0.40;;;2.60;99.90;;;;;;5004679;28;20847;-72
2022/03/24 05:50:25;;;;;;;0.50;0.50;;;2.60;99.90;;;;;;5011066;28;20512;-73
2022/03/24 05:52:51;;;;;;;0.50;0.50;;;2.60;99.90;;;;;;4996593;28;20485;-73
2022/03/24 05:55:17;;;;;;;0.60;0.60;;;2.60;99.90;;;;;;5012622;28;20049;-73
2022/03/24 05:57:44;;;;;;;2.35;2.25;;;2.60;99.90;;;;;;5013620;28;20115;-73
2022/03/24 06:00:10;;;;;;;0.47;0.47;;;2.60;99.90;;;;;;5002629;28;20065;-72
2022/03/24 06:02:36;;;;;;;42.95;35.50;;;2.60;99.90;;;;;;5002969;28;20049;-73
2022/03/24 06:05:09;;;;;;;0.40;0.40;;;2.60;99.90;;;;;;5013400;28;20034;-72
2022/03/24 06:07:35;;;;;;;0.50;0.50;;;2.60;99.90;;;;;;5012327;28;20041;-73
2022/03/24 06:10:01;;;;;;;0.40;0.40;;;2.60;99.90;;;;;;5013364;28;20183;-74
2022/03/24 06:12:26;;;;;;;0.40;0.40;;;2.70;99.90;;;;;;5030987;28;20139;-72
2022/03/24 06:14:52;;;;;;;0.50;0.50;;;2.70;99.90;;;;;;5022890;28;20504;-73
2022/03/24 06:17:21;;;;;;;0.50;0.50;;;2.80;99.90;;;;;;4993643;28;20522;-73
2022/03/24 06:19:50;;;;;;;1.20;1.20;;;2.90;99.90;;;;;;4993889;28;20046;-73
2022/03/24 06:22:16;;;;;;;1.15;1.15;;;2.90;99.90;;;;;;5012317;28;20459;-73
2022/03/24 06:24:42;;;;;;;1.25;1.20;;;2.90;99.90;;;;;;5011893;28;20095;-73
2022/03/24 06:27:08;;;;;;;5.13;3.15;;;3.00;99.90;;;;;;4995987;28;20049;-74
2022/03/24 06:29:34;;;;;;;15.63;1.90;;;3.10;99.90;;;;;;4995252;28;20069;-73
2022/03/24 06:32:00;;;;;;;1.17;0.75;;;3.20;99.90;;;;;;5012436;28;20444;-73
2022/03/24 06:34:25;;;;;;;5.85;1.55;;;3.30;99.90;;;;;;5012629;28;20048;-73
2022/03/24 06:36:52;;;;;;;0.60;0.60;;;3.40;99.90;;;;;;5010563;28;20103;-72
2022/03/24 06:39:18;;;;;;;0.73;0.70;;;3.50;99.90;;;;;;4996011;28;20041;-72
2022/03/24 06:41:44;;;;;;;0.40;0.40;;;3.60;99.90;;;;;;4996797;28;20057;-72
2022/03/24 06:44:10;;;;;;;0.40;0.40;;;3.70;99.90;;;;;;4996275;28;20049;-72
2022/03/24 06:46:38;;;;;;;0.47;0.47;;;3.80;99.90;;;;;;4994915;28;20515;-72
2022/03/24 06:49:05;;;;;;;0.40;0.40;;;3.90;99.90;;;;;;5011519;28;20371;-73
2022/03/24 06:51:31;;;;;;;0.50;0.50;;;4.00;99.90;;;;;;5012420;28;20048;-72
2022/03/24 06:53:57;;;;;;;0.50;0.50;;;4.20;99.90;;;;;;5010457;28;20045;-73
2022/03/24 06:56:24;;;;;;;0.50;0.50;;;4.30;99.90;;;;;;5029595;28;20191;-73
2022/03/24 06:58:50;;;;;;;0.40;0.40;;;4.50;99.90;;;;;;4996125;28;20042;-72
2022/03/24 07:01:16;;;;;;;3.25;1.67;;;4.70;99.90;;;;;;5010326;28;20049;-73
2022/03/24 07:03:42;;;;;;;1.17;1.08;;;4.80;99.90;;;;;;4995539;28;20041;-73
2022/03/24 07:06:07;;;;;;;1.65;1.55;;;4.90;99.90;;;;;;5009496;28;20473;-72
2022/03/24 07:08:33;;;;;;;0.98;0.98;;;5.10;99.90;;;;;;5001501;28;20048;-73
2022/03/24 07:10:59;;;;;;;0.38;0.38;;;5.20;99.90;;;;;;5012900;28;20516;-73
2022/03/24 07:13:24;;;;;;;0.40;0.40;;;5.40;99.90;;;;;;5012219;28;20053;-73
2022/03/24 07:15:50;;;;;;;0.95;0.95;;;5.50;99.90;;;;;;4995812;28;20042;-73
2022/03/24 07:18:16;;;;;;;9.30;7.22;;;5.70;99.90;;;;;;4995703;28;20542;-73
2022/03/24 07:20:42;;;;;;;5.22;4.60;;;5.80;99.90;;;;;;5029765;28;20404;-73
2022/03/24 07:23:08;;;;;;;15.85;2.85;;;6.00;99.90;;;;;;5011733;28;20049;-73
2022/03/24 07:25:36;;;;;;;11.02;4.70;;;6.10;99.90;;;;;;5029515;28;20456;-73
2022/03/24 07:28:04;;;;;;;10.30;5.32;;;6.30;99.90;;;;;;5011822;28;20111;-73
2022/03/24 07:30:30;;;;;;;8.05;6.85;;;6.50;99.90;;;;;;5010790;28;20155;-73
2022/03/24 07:32:58;;;;;;;11.57;7.43;;;6.70;99.90;;;;;;5011676;28;20048;-73
2022/03/24 07:35:24;;;;;;;1.95;1.85;;;6.90;99.90;;;;;;4994440;28;20079;-73
2022/03/24 07:37:51;;;;;;;5.15;4.63;;;7.10;99.90;;;;;;5011395;28;20373;-72
2022/03/24 07:40:18;;;;;;;3.13;2.88;;;7.20;99.90;;;;;;4994840;28;20045;-72
2022/03/24 07:42:49;;;;;;;24.33;8.27;;;7.30;99.90;;;;;;5010838;28;20037;-73
2022/03/24 07:45:14;;;;;;;12.70;7.80;;;7.50;99.90;;;;;;5011179;28;20068;-72
2022/03/24 07:48:09;;;;;;;37.28;12.00;;;7.70;99.90;;;;;;5011373;28;20068;-72
2022/03/24 07:50:37;;;;;;;4.65;2.75;;;7.90;99.90;;;;;;5011610;28;20124;-72
2022/03/24 07:53:30;;;;;;;3.38;3.13;;;8.10;99.90;;;;;;5010950;28;20122;-72
2022/03/24 07:55:57;;;;;;;6.03;5.57;;;8.30;99.90;;;;;;5010926;28;20156;-72
2022/03/24 07:58:23;;;;;;;0.77;0.77;;;8.40;99.90;;;;;;5002006;28;20052;-73
2022/03/24 08:00:49;;;;;;;4.55;2.97;;;8.60;99.90;;;;;;4997419;28;20484;-72
2022/03/24 08:03:20;;;;;;;8.23;6.82;;;8.70;99.90;;;;;;4995462;28;20126;-73
2022/03/24 08:05:46;;;;;;;5.38;4.65;;;8.80;99.90;;;;;;5008574;28;20061;-73
2022/03/24 08:08:13;;;;;;;13.38;7.85;;;8.90;99.90;;;;;;4988291;28;20049;-73
2022/03/24 08:10:44;;;;;;;0.73;0.73;;;9.10;99.90;;;;;;5010856;28;20040;-73
2022/03/24 08:13:13;;;;;;;19.17;8.23;;;9.30;99.90;;;;;;5010865;28;20065;-73
2022/03/24 08:15:39;;;;;;;2.72;2.53;;;9.40;99.90;;;;;;4994108;28;20041;-73
2022/03/24 08:18:05;;;;;;;6.88;6.03;;;9.50;99.90;;;;;;5008262;28;20202;-74
2022/03/24 08:20:32;;;;;;;11.25;6.38;;;9.60;99.90;;;;;;5028199;28;20037;-73
2022/03/24 08:22:58;;;;;;;20.23;12.85;;;9.70;99.90;;;;;;4992662;28;20128;-73
2022/03/24 08:25:24;;;;;;;6.57;3.67;;;9.80;99.90;;;;;;5026651;28;20053;-73
2022/03/24 08:27:50;;;;;;;3.05;2.83;;;9.90;99.90;;;;;;5007898;28;20041;-73
2022/03/24 08:30:15;;;;;;;13.93;6.72;;;10.10;99.90;;;;;;4993464;28;20077;-74
2022/03/24 08:32:41;;;;;;;9.07;8.23;;;10.40;99.90;;;;;;4994143;28;20041;-73
2022/03/24 08:35:08;;;;;;;23.90;11.52;;;10.80;99.90;;;;;;4991417;28;20142;-73
2022/03/24 08:37:33;;;;;;;16.40;7.45;;;11.30;99.90;;;;;;5010585;28;20045;-74
2022/03/24 08:39:59;;;;;;;3.25;2.85;;;11.60;99.90;;;;;;5009895;28;20041;-74
2022/03/24 08:42:26;;;;;;;3.90;3.50;;;11.80;99.90;;;;;;5010787;28;20124;-73
2022/03/24 08:44:51;;;;;;;2.65;2.45;;;11.90;99.90;;;;;;4994732;28;20532;-74
2022/03/24 08:47:17;;;;;;;11.30;5.68;;;11.80;99.90;;;;;;5010804;28;20132;-73
2022/03/24 08:49:42;;;;;;;11.98;8.70;;;11.90;99.90;;;;;;4995044;28;20048;-73
2022/03/24 08:52:09;;;;;;;6.63;4.88;;;11.90;99.90;;;;;;5014831;28;20030;-73
2022/03/24 08:54:35;;;;;;;5.03;4.32;;;12.00;99.90;;;;;;4998865;28;20044;-74
2022/03/24 08:57:01;;;;;;;3.08;2.85;;;12.30;99.90;;;;;;5014176;28;20037;-74
2022/03/24 08:59:27;;;;;;;1.80;1.65;;;12.70;99.90;;;;;;5014636;28;20499;-74
2022/03/24 09:01:52;;;;;;;9.73;8.13;;;13.40;99.90;;;;;;5012020;28;20541;-74
2022/03/24 09:04:20;;;;;;;11.23;7.85;;;14.30;99.90;;;;;;4996752;28;20034;-74
2022/03/24 09:06:48;;;;;;;12.18;9.02;;;15.10;99.90;;;;;;4997308;28;20041;-74
2022/03/24 09:09:14;;;;;;;6.00;3.30;;;15.70;99.90;;;;;;5014672;28;20041;-74
2022/03/24 09:11:40;;;;;;;16.88;10.48;;;16.20;99.90;;;;;;5013057;28;20682;-75
2022/03/24 09:14:05;;;;;;;13.30;6.90;;;16.50;99.90;;;;;;4995972;28;20041;-75
2022/03/24 09:16:31;;;;;;;95.50;11.90;;;16.70;95.30;;;;;;5013348;28;20501;-75
2022/03/24 09:18:57;;;;;;;7.13;3.58;;;17.10;95.50;;;;;;5013706;28;20041;-75
2022/03/24 09:21:23;;;;;;;5.82;3.55;;;17.40;94.30;;;;;;5013374;28;20050;-74
2022/03/24 09:23:48;;;;;;;21.50;13.38;;;17.80;92.30;;;;;;5013002;28;20049;-74
2022/03/24 09:26:14;;;;;;;0.65;0.65;;;18.10;92.90;;;;;;5013728;28;20041;-73
2022/03/24 09:28:40;;;;;;;12.10;9.82;;;18.20;89.10;;;;;;5013410;28;20497;-74
2022/03/24 09:31:06;;;;;;;1.15;0.93;;;18.30;89.30;;;;;;4996715;28;20037;-73
2022/03/24 09:33:32;;;;;;;1.95;1.85;;;18.50;89.80;;;;;;5009328;28;20041;-73
2022/03/24 09:35:58;;;;;;;13.55;9.10;;;18.70;83.20;;;;;;5009566;28;20048;-73
2022/03/24 09:38:23;;;;;;;13.15;7.95;;;18.90;83.40;;;;;;5012681;28;20049;-73
2022/03/24 09:40:51;;;;;;;5.70;5.05;;;18.80;84.60;;;;;;5029743;28;20701;-74
2022/03/24 09:43:18;;;;;;;2.90;2.58;;;18.90;74.90;;;;;;4987982;28;20046;-74
2022/03/24 09:45:47;;;;;;;9.70;5.18;;;18.90;81.00;;;;;;5008142;28;20096;-74
2022/03/24 09:48:15;;;;;;;3.47;3.22;;;19.00;80.50;;;;;;5004336;28;20041;-74
2022/03/24 09:50:43;;;;;;;16.60;10.40;;;19.10;72.30;;;;;;4998933;28;20053;-74
2022/03/24 09:53:09;;;;;;;15.77;7.68;;;19.20;72.40;;;;;;5012814;28;20052;-74
2022/03/24 09:55:37;;;;;;;6.38;4.70;;;19.20;75.70;;;;;;4993343;28;20579;-74
2022/03/24 09:58:06;;;;;;;17.25;10.30;;;19.10;70.00;;;;;;5010645;28;20092;-74
2022/03/24 10:00:31;;;;;;;5.38;4.75;;;19.10;70.20;;;;;;4995022;28;20052;-74
2022/03/24 10:03:17;;;;;;;31.33;14.73;;;18.90;67.20;;;;;;5028517;28;20046;-74
2022/03/24 10:06:02;;;;;;;20.08;10.18;;;18.80;67.60;;;;;;5012973;28;20132;-74
2022/03/24 10:08:29;;;;;;;15.98;6.60;;;18.70;68.00;;;;;;4995161;28;20045;-74
2022/03/24 10:10:58;;;;;;;24.33;13.80;;;18.80;69.40;;;;;;4994143;28;20144;-74
2022/03/24 10:13:49;;;;;;;18.92;11.82;;;18.90;68.10;;;;;;4990477;28;20041;-74
2022/03/24 10:16:33;;;;;;;23.10;9.80;;;18.60;67.70;;;;;;4997336;28;20056;-74
2022/03/24 10:19:01;;;;;;;8.70;4.15;;;18.50;70.30;;;;;;5013124;28;20480;-74
2022/03/24 10:21:31;;;;;;;15.88;9.93;;;18.60;70.70;;;;;;5011862;28;20390;-74
2022/03/24 10:24:00;;;;;;;12.80;6.93;;;18.60;69.20;;;;;;5012294;28;20535;-74
2022/03/24 10:26:49;;;;;;;4.60;3.55;;;18.60;66.90;;;;;;4996604;28;20046;-74
2022/03/24 10:29:20;;;;;;;14.50;9.38;;;18.80;71.50;;;;;;5012668;28;20048;-74
2022/03/24 10:32:05;;;;;;;12.85;6.32;;;18.80;68.80;;;;;;5003232;28;20042;-74
2022/03/24 10:34:32;;;;;;;6.13;4.15;;;18.80;69.70;;;;;;5026020;28;20037;-74
2022/03/24 10:37:06;;;;;;;19.75;10.93;;;18.70;68.90;;;;;;5005522;28;20041;-74
2022/03/24 10:39:33;;;;;;;22.02;7.75;;;18.60;69.40;;;;;;5004983;28;20057;-74
2022/03/24 10:42:14;;;;;;;5.07;3.17;;;18.60;69.50;;;;;;5002224;28;20034;-74
2022/03/24 10:45:04;;;;;;;14.98;8.25;;;18.60;67.60;;;;;;5008982;28;20041;-74
2022/03/24 10:47:40;;;;;;;10.55;5.40;;;18.80;69.00;;;;;;4993192;28;20064;-74
2022/03/24 10:50:39;;;;;;;8.30;6.50;;;18.70;65.70;;;;;;5001178;28;20417;-74
2022/03/24 10:53:11;;;;;;;24.52;12.52;;;18.70;67.00;;;;;;5007224;28;20041;-74
2022/03/24 10:55:44;;;;;;;42.95;11.60;;;18.80;64.40;;;;;;5006699;28;20049;-74
2022/03/24 10:58:32;;;;;;;18.38;10.73;;;18.70;65.30;;;;;;5019549;28;20081;-73
2022/03/24 11:01:01;;;;;;;6.90;4.18;;;18.50;62.50;;;;;;5002606;28;20049;-74
2022/03/24 11:03:27;;;;;;;4.45;3.72;;;18.40;65.40;;;;;;4995224;28;20087;-74
2022/03/24 11:06:24;;;;;;;12.85;7.68;;;18.40;66.80;;;;;;5007042;28;20083;-74
2022/03/24 11:09:00;;;;;;;32.63;9.00;;;18.60;65.80;;;;;;4992203;28;20046;-74
2022/03/24 11:11:27;;;;;;;8.02;6.15;;;18.70;65.00;;;;;;4984358;28;20033;-74
2022/03/24 11:14:02;;;;;;;11.05;7.20;;;18.80;64.10;;;;;;4996020;28;20441;-74
2022/03/24 11:16:30;;;;;;;15.65;7.97;;;18.70;65.40;;;;;;5011039;28;20494;-74
2022/03/24 11:18:58;;;;;;;6.03;4.72;;;18.90;65.90;;;;;;5010979;28;20057;-74
2022/03/24 11:21:28;;;;;;;5.82;5.15;;;19.00;63.50;;;;;;4999831;28;20176;-74
2022/03/24 11:23:54;;;;;;;21.35;7.75;;;19.00;60.80;;;;;;5005490;28;20088;-74
2022/03/24 11:26:22;;;;;;;10.93;6.25;;;19.00;62.70;;;;;;5008343;28;20445;-74
2022/03/24 11:28:50;;;;;;;11.88;6.40;;;19.10;61.20;;;;;;5024781;28;20480;-74
2022/03/24 11:31:17;;;;;;;8.27;5.13;;;19.10;59.00;;;;;;4994738;28;20480;-74
2022/03/24 11:33:46;;;;;;;7.82;6.32;;;19.10;61.40;;;;;;5010070;28;20159;-74
2022/03/24 11:36:13;;;;;;;10.20;6.18;;;19.10;61.30;;;;;;5008532;28;20409;-74
2022/03/24 11:38:43;;;;;;;7.18;4.80;;;19.20;61.60;;;;;;5009140;28;20050;-74
2022/03/24 11:41:18;;;;;;;19.17;7.80;;;19.20;60.70;;;;;;5005185;28;20049;-74
2022/03/24 11:43:49;;;;;;;21.73;11.77;;;19.30;60.70;;;;;;4993863;28;20041;-74
2022/03/24 11:46:28;;;;;;;14.02;5.05;;;19.50;58.70;;;;;;4997111;28;20104;-75
2022/03/24 11:49:16;;;;;;;6.05;5.10;;;19.50;59.00;;;;;;4986358;28;20041;-74
2022/03/24 11:51:44;;;;;;;9.45;3.88;;;19.50;57.90;;;;;;5007594;28;20051;-74
2022/03/24 11:54:09;;;;;;;12.23;7.28;;;19.60;59.00;;;;;;5018839;28;20159;-74
2022/03/24 11:56:36;;;;;;;3.60;2.85;;;19.60;58.70;;;;;;5009479;28;20418;-75
2022/03/24 11:59:03;;;;;;;9.63;5.95;;;19.70;59.00;;;;;;5001003;28;20044;-74
2022/03/24 12:01:32;;;;;;;13.98;8.73;;;19.60;57.40;;;;;;4990367;28;20048;-74
2022/03/24 12:04:11;;;;;;;2.40;2.20;;;19.60;58.10;;;;;;4997407;28;20038;-73
2022/03/24 12:06:48;;;;;;;8.27;5.07;;;19.40;58.10;;;;;;5006287;28;20449;-73
2022/03/24 12:09:25;;;;;;;6.20;4.43;;;19.40;59.60;;;;;;5006999;28;20137;-72
2022/03/24 12:12:06;;;;;;;12.50;8.07;;;19.40;59.10;;;;;;4991744;28;20037;-73
2022/03/24 12:14:31;;;;;;;2.90;2.58;;;19.40;58.00;;;;;;4991104;28;20477;-74
2022/03/24 12:17:03;;;;;;;6.88;3.75;;;19.50;58.90;;;;;;5005555;28;20050;-74
2022/03/24 12:19:40;;;;;;;13.68;7.53;;;19.40;57.50;;;;;;4997834;28;20041;-74
2022/03/24 12:22:34;;;;;;;11.05;5.82;;;19.40;59.50;;;;;;4995691;28;20045;-74
2022/03/24 12:24:59;;;;;;;9.27;6.55;;;19.40;58.40;;;;;;5001748;28;20089;-74
2022/03/24 12:27:30;;;;;;;5.07;4.53;;;19.40;57.70;;;;;;4998390;28;20077;-74
2022/03/24 12:30:17;;;;;;;6.13;4.78;;;19.30;55.60;;;;;;4980298;28;20393;-74
2022/03/24 12:33:00;;;;;;;17.25;8.00;;;19.30;56.80;;;;;;5007648;28;20042;-73
2022/03/24 12:35:45;;;;;;;4.53;3.38;;;19.20;56.60;;;;;;5018387;28;20055;-73
2022/03/24 12:38:33;;;;;;;12.65;7.00;;;19.10;56.60;;;;;;5023318;28;20172;-73
2022/03/24 12:41:05;;;;;;;22.13;8.32;;;19.00;55.40;;;;;;5000820;28;20371;-73
2022/03/24 12:43:56;;;;;;;17.63;7.15;;;18.80;56.90;;;;;;5000867;28;20045;-74
2022/03/24 12:46:43;;;;;;;6.55;5.70;;;18.80;56.50;;;;;;5023601;28;20053;-73
2022/03/24 12:49:15;;;;;;;7.38;5.82;;;18.70;56.20;;;;;;4992589;28;20563;-73
2022/03/24 12:52:01;;;;;;;23.50;10.80;;;18.70;56.30;;;;;;4994500;28;20037;-74
2022/03/24 12:54:29;;;;;;;5.45;3.45;;;18.70;55.10;;;;;;5006121;28;20873;-74
2022/03/24 12:57:21;;;;;;;9.60;6.68;;;18.50;55.30;;;;;;4991242;28;20052;-73